Time;durP1;ratioP1;P1;durP2;ratioP2;P2;SDS_P1;SDS_P2;PMS_P1;PMS_P2;Temp;Humidity;BMP_temperature;BMP_pressure;BME280_temperature;BME280_humidity;BME280_pressure;Samples;Min_cycle;Max_cycle;Signal;HPM_P1;HPM_P2
2023/03/14 00:01:45;;;;;;;8.20;4.30;;;;;;;9.96;57.95;97045.54;104738;1257;108657;-69
2023/03/14 00:04:20;;;;;;;9.90;4.10;;;;;;;9.93;58.16;97039.98;104503;1264;99369;-65
2023/03/14 00:06:49;;;;;;;8.50;4.50;;;;;;;9.92;58.30;97033.61;104848;1261;99667;-65
2023/03/14 00:09:17;;;;;;;7.10;3.10;;;;;;;9.87;58.36;97022.55;104609;1264;113337;-65
2023/03/14 00:11:44;;;;;;;5.90;2.90;;;;;;;9.84;58.44;97012.45;104951;1264;99256;-65
2023/03/14 00:14:11;;;;;;;7.30;2.80;;;;;;;9.82;58.50;96996.84;104804;1264;99361;-65
2023/03/14 00:16:39;;;;;;;6.20;3.10;;;;;;;9.82;58.61;96989.50;104883;1262;99337;-64
2023/03/14 00:19:07;;;;;;;4.40;2.10;;;;;;;9.83;58.59;96973.27;104598;1267;99191;-65
2023/03/14 00:21:34;;;;;;;5.30;2.80;;;;;;;9.85;58.61;96957.77;104874;1263;99257;-64
2023/03/14 00:24:00;;;;;;;4.30;2.30;;;;;;;9.83;58.73;96938.56;104910;1264;99285;-65
2023/03/14 00:26:28;;;;;;;3.60;2.10;;;;;;;9.84;58.64;96928.52;104826;1260;99263;-64
2023/03/14 00:28:55;;;;;;;5.00;2.30;;;;;;;9.88;58.50;96922.66;104841;1262;100584;-65
2023/03/14 00:31:23;;;;;;;4.50;2.40;;;;;;;9.88;58.51;96921.41;104911;1260;99710;-65
2023/03/14 00:33:53;;;;;;;4.50;2.70;;;;;;;9.87;58.74;96918.56;104839;1264;99795;-65
2023/03/14 00:36:20;;;;;;;7.00;3.50;;;;;;;9.88;58.61;96925.64;104799;1262;99260;-65
2023/03/14 00:38:52;;;;;;;3.30;2.10;;;;;;;9.89;58.55;96934.02;104858;1264;108612;-65
2023/03/14 00:41:23;;;;;;;5.40;2.70;;;;;;;9.91;58.29;96932.05;104806;1272;100438;-65
2023/03/14 00:43:51;;;;;;;;;;;;;;;9.92;58.41;96930.97;104861;1263;99232;-65
2023/03/14 00:46:18;;;;;;;3.80;2.10;;;;;;;9.91;58.38;96933.45;104831;1263;99356;-66
2023/03/14 00:48:46;;;;;;;5.70;3.10;;;;;;;9.91;58.44;96927.66;104698;1262;99266;-65
2023/03/14 00:51:14;;;;;;;3.20;2.00;;;;;;;9.89;58.45;96923.23;104802;1263;108586;-66
2023/03/14 00:53:42;;;;;;;3.50;2.40;;;;;;;9.90;58.37;96925.06;104823;1271;99265;-65
2023/03/14 00:56:12;;;;;;;3.80;2.50;;;;;;;9.91;58.32;96919.69;104816;1264;100345;-65
2023/03/14 00:58:39;;;;;;;4.90;3.10;;;;;;;9.93;58.07;96919.04;104502;1267;112606;-64
2023/03/14 01:01:13;;;;;;;5.10;2.80;;;;;;;9.97;58.11;96919.43;104642;1265;100734;-65
2023/03/14 01:03:40;;;;;;;4.00;2.30;;;;;;;9.97;58.00;96916.46;104804;1264;108460;-64
2023/03/14 01:06:27;;;;;;;5.80;2.20;;;;;;;10.00;57.81;96913.02;104610;1262;298786;-64
2023/03/14 01:08:55;;;;;;;5.40;2.50;;;;;;;10.02;57.71;96912.92;104879;1258;100948;-64
2023/03/14 01:11:31;;;;;;;5.60;2.60;;;;;;;10.01;57.99;96905.54;104888;1262;113533;-64
2023/03/14 01:14:00;;;;;;;5.30;2.40;;;;;;;9.98;57.88;96898.98;104645;1263;99220;-64
2023/03/14 01:16:28;;;;;;;4.70;2.80;;;;;;;9.98;57.87;96891.95;104759;1257;108551;-64
2023/03/14 01:18:55;;;;;;;4.30;2.80;;;;;;;9.98;57.80;96880.70;104636;1262;99445;-64
2023/03/14 01:21:25;;;;;;;4.20;2.60;;;;;;;9.97;57.87;96864.72;104374;1266;100440;-65
2023/03/14 01:23:54;;;;;;;1.60;1.10;;;;;;;9.96;57.57;96851.16;104780;1263;113646;-71
2023/03/14 01:26:23;;;;;;;3.20;1.80;;;;;;;10.03;57.13;96836.56;104907;1261;99333;-64
2023/03/14 01:28:52;;;;;;;5.70;1.90;;;;;;;10.08;57.01;96826.65;104665;1260;108791;-64
2023/03/14 01:31:19;;;;;;;4.30;2.20;;;;;;;10.11;56.79;96819.92;104811;1269;99784;-65
2023/03/14 01:33:46;;;;;;;2.70;1.90;;;;;;;10.14;56.59;96805.37;104774;1262;99384;-64
2023/03/14 01:36:14;;;;;;;2.90;1.90;;;;;;;10.19;56.73;96801.87;104850;1263;99343;-64
2023/03/14 01:38:41;;;;;;;4.80;2.40;;;;;;;10.22;56.46;96803.34;104646;1263;99300;-65
2023/03/14 01:41:14;;;;;;;3.50;2.20;;;;;;;10.25;56.60;96803.01;104693;1261;100579;-64
2023/03/14 01:43:41;;;;;;;3.10;2.00;;;;;;;10.24;56.42;96797.61;104754;1275;100413;-64
2023/03/14 01:46:19;;;;;;;3.40;2.10;;;;;;;10.28;56.44;96793.48;104752;1262;99263;-65
2023/03/14 01:48:53;;;;;;;3.80;2.00;;;;;;;10.28;56.47;96789.27;104669;1263;113551;-64
2023/03/14 01:51:35;;;;;;;4.80;2.40;;;;;;;10.28;56.52;96788.79;104739;1260;99244;-65
2023/03/14 01:54:11;;;;;;;3.10;2.40;;;;;;;10.27;56.46;96783.99;104540;1263;108556;-65
2023/03/14 01:56:40;;;;;;;4.60;2.50;;;;;;;10.28;56.25;96778.00;104502;1267;99369;-64
2023/03/14 01:59:09;;;;;;;5.00;3.00;;;;;;;10.34;56.05;96778.50;104577;1263;99822;-64
2023/03/14 02:01:43;;;;;;;3.40;1.60;;;;;;;10.39;55.80;96774.54;104601;1267;112632;-65
2023/03/14 02:04:11;;;;;;;4.80;2.30;;;;;;;10.44;55.43;96772.05;104790;1259;99328;-64
2023/03/14 02:06:49;;;;;;;5.00;2.30;;;;;;;10.49;55.30;96768.50;104551;1276;107667;-65
2023/03/14 02:09:21;;;;;;;5.00;2.00;;;;;;;10.51;55.35;96778.10;104719;1262;99406;-65
2023/03/14 02:11:52;;;;;;;2.70;1.80;;;;;;;10.52;54.97;96772.02;104907;1257;99711;-66
2023/03/14 02:14:33;;;;;;;4.10;1.90;;;;;;;10.54;54.86;96765.86;104818;1263;114248;-64
2023/03/14 02:17:06;;;;;;;5.20;2.50;;;;;;;10.54;54.77;96765.73;104442;1268;99494;-64
2023/03/14 02:20:21;;;;;;;4.50;2.70;;;;;;;10.56;54.64;96761.29;104753;1262;107834;-64
2023/03/14 02:22:50;;;;;;;5.20;2.90;;;;;;;10.55;54.92;96759.09;104505;1277;100146;-63
2023/03/14 02:25:52;;;;;;;4.60;2.50;;;;;;;10.51;54.91;96760.33;104534;1274;99320;-66
2023/03/14 02:28:22;;;;;;;;;;;;;;;10.49;54.83;96749.33;104188;1271;112558;-65
2023/03/14 02:30:51;;;;;;;5.90;2.30;;;;;;;10.47;54.85;96751.65;104536;1263;99401;-63
2023/03/14 02:33:21;;;;;;;5.30;2.90;;;;;;;10.48;54.97;96759.88;104431;1269;107325;-65
2023/03/14 02:35:56;;;;;;;3.30;1.80;;;;;;;10.47;55.20;96760.73;104361;1270;100578;-66
2023/03/14 02:38:41;;;;;;;5.50;3.30;;;;;;;10.46;54.91;96769.95;104268;1267;101071;-65
2023/03/14 02:41:08;;;;;;;5.40;2.70;;;;;;;10.49;54.91;96771.48;104303;1267;113550;-67
2023/03/14 02:43:35;;;;;;;4.30;2.20;;;;;;;10.47;54.93;96773.63;104354;1268;99352;-65
2023/03/14 02:46:05;;;;;;;3.30;1.90;;;;;;;10.46;55.04;96786.96;104324;1267;100734;-66
2023/03/14 02:49:02;;;;;;;6.30;2.80;;;;;;;10.43;55.02;96787.52;104437;1276;99519;-66
2023/03/14 02:51:29;;;;;;;9.60;3.70;;;;;;;10.39;55.40;96803.10;104319;1263;99617;-64
2023/03/14 02:53:56;;;;;;;5.40;2.70;;;;;;;10.34;55.52;96803.45;104485;1278;99606;-64
2023/03/14 02:56:24;;;;;;;6.90;3.00;;;;;;;10.33;55.16;96805.70;104481;1267;99736;-64
2023/03/14 02:58:51;;;;;;;10.60;4.00;;;;;;;10.38;55.15;96809.49;104819;1263;99320;-65
2023/03/14 03:01:17;;;;;;;7.40;3.40;;;;;;;10.38;55.36;96803.86;104725;1262;100523;-64
2023/03/14 03:03:45;;;;;;;17.00;6.10;;;;;;;10.36;55.38;96798.33;104950;1263;99317;-64
2023/03/14 03:06:12;;;;;;;24.80;8.10;;;;;;;10.31;55.66;96794.56;104908;1260;99663;-64
2023/03/14 03:08:38;;;;;;;10.20;6.50;;;;;;;10.25;55.86;96794.51;104912;1263;100549;-62
2023/03/14 03:11:06;;;;;;;4.70;2.80;;;;;;;10.20;55.92;96790.24;104669;1262;99241;-64
2023/03/14 03:13:34;;;;;;;10.40;4.00;;;;;;;10.17;56.08;96785.58;104651;1258;99612;-64
2023/03/14 03:16:01;;;;;;;17.60;5.40;;;;;;;10.13;56.29;96787.14;104712;1263;113626;-64
2023/03/14 03:18:28;;;;;;;6.90;2.60;;;;;;;10.11;56.20;96788.81;104893;1262;99247;-65
2023/03/14 03:20:55;;;;;;;5.90;3.30;;;;;;;10.08;56.34;96796.16;104846;1260;99349;-65
2023/03/14 03:23:22;;;;;;;9.70;4.30;;;;;;;10.04;56.43;96808.85;104816;1262;99253;-63
2023/03/14 03:25:51;;;;;;;25.80;9.70;;;;;;;10.01;56.53;96816.27;104887;1262;99346;-64
2023/03/14 03:28:19;;;;;;;22.30;8.50;;;;;;;9.94;56.68;96825.64;104773;1262;113184;-63
2023/03/14 03:30:45;;;;;;;14.70;6.10;;;;;;;9.86;57.02;96839.67;104893;1261;100590;-64
2023/03/14 03:33:13;;;;;;;62.60;19.30;;;;;;;9.77;57.38;96850.56;104680;1264;99288;-64
2023/03/14 03:35:49;;;;;;;51.00;16.40;;;;;;;9.69;57.40;96852.80;104552;1281;100559;-64
2023/03/14 03:38:16;;;;;;;56.20;17.40;;;;;;;9.60;57.46;96850.54;104777;1260;99649;-63
2023/03/14 03:40:43;;;;;;;35.50;10.60;;;;;;;9.54;57.75;96851.71;104866;1262;99246;-64
2023/03/14 03:43:10;;;;;;;27.20;9.60;;;;;;;9.47;57.80;96861.23;104814;1259;99275;-64
2023/03/14 03:45:37;;;;;;;7.20;4.10;;;;;;;9.41;57.90;96860.77;104778;1263;99246;-63
2023/03/14 03:48:04;;;;;;;13.00;5.10;;;;;;;9.39;57.93;96859.38;104706;1264;100556;-63
2023/03/14 03:50:31;;;;;;;17.40;7.50;;;;;;;9.40;58.11;96858.55;104822;1264;99348;-63
2023/03/14 03:52:58;;;;;;;8.30;4.30;;;;;;;9.37;58.17;96853.54;104708;1262;99297;-63
2023/03/14 03:55:26;;;;;;;9.60;5.30;;;;;;;9.31;58.47;96854.02;104792;1262;99686;-63
2023/03/14 03:57:53;;;;;;;16.80;6.50;;;;;;;9.22;58.61;96851.68;104743;1262;99365;-64
2023/03/14 04:00:20;;;;;;;38.70;17.80;;;;;;;9.14;59.03;96847.61;104820;1258;99317;-64
2023/03/14 04:02:46;;;;;;;30.60;14.90;;;;;;;9.08;58.98;96836.92;104600;1262;99797;-64
2023/03/14 04:05:14;;;;;;;31.40;16.90;;;;;;;9.02;59.21;96841.38;104741;1262;99311;-65
2023/03/14 04:07:41;;;;;;;28.60;14.50;;;;;;;8.97;59.26;96848.27;104734;1262;99282;-65
2023/03/14 04:10:08;;;;;;;33.70;17.50;;;;;;;8.91;59.43;96853.95;104881;1262;99203;-64
2023/03/14 04:12:35;;;;;;;22.30;11.80;;;;;;;8.83;59.71;96856.63;104877;1263;99240;-64
2023/03/14 04:15:02;;;;;;;26.40;12.70;;;;;;;8.74;59.97;96850.05;104919;1263;99252;-64
2023/03/14 04:17:31;;;;;;;40.20;19.40;;;;;;;8.67;60.12;96843.08;104919;1262;99370;-63
2023/03/14 04:19:58;;;;;;;42.20;18.10;;;;;;;8.60;60.48;96837.95;104903;1262;99458;-64
2023/03/14 04:22:26;;;;;;;72.50;27.40;;;;;;;8.52;60.80;96834.05;104875;1263;99466;-64
2023/03/14 04:24:53;;;;;;;59.90;20.40;;;;;;;8.40;61.10;96829.09;104942;1262;99358;-64
2023/03/14 04:27:20;;;;;;;69.70;25.00;;;;;;;8.29;61.47;96823.67;104959;1270;99249;-63
2023/03/14 04:29:47;;;;;;;25.90;10.90;;;;;;;8.15;61.90;96808.69;104812;1262;99720;-64
2023/03/14 04:32:14;;;;;;;13.30;6.40;;;;;;;8.02;62.46;96802.00;104857;1262;99821;-64
2023/03/14 04:34:42;;;;;;;16.40;8.50;;;;;;;8.03;61.91;96809.27;104856;1263;99497;-64
2023/03/14 04:37:09;;;;;;;16.90;9.30;;;;;;;8.04;62.04;96803.15;104967;1277;99170;-64
2023/03/14 04:39:36;;;;;;;14.30;8.70;;;;;;;8.04;62.10;96794.20;104941;1262;99422;-63
2023/03/14 04:42:03;;;;;;;28.30;13.40;;;;;;;8.02;62.10;96787.65;104925;1279;108658;-64
2023/03/14 04:44:30;;;;;;;10.90;4.60;;;;;;;8.00;62.85;96797.96;104812;1262;99313;-64
2023/03/14 04:46:57;;;;;;;11.70;4.60;;;;;;;8.15;62.23;96796.85;104874;1257;99218;-65
2023/03/14 04:49:24;;;;;;;9.90;5.90;;;;;;;8.33;61.90;96799.09;104682;1274;99860;-64
2023/03/14 04:51:51;;;;;;;7.40;4.20;;;;;;;8.48;61.53;96797.50;104875;1258;99277;-65
2023/03/14 04:54:18;;;;;;;7.10;3.90;;;;;;;8.58;61.07;96798.04;104735;1258;99229;-64
2023/03/14 04:56:45;;;;;;;4.80;2.70;;;;;;;8.72;60.87;96801.48;104780;1262;99243;-65
2023/03/14 04:59:12;;;;;;;3.50;2.40;;;;;;;8.78;60.85;96805.85;104957;1262;99346;-65
2023/03/14 05:01:40;;;;;;;5.60;3.20;;;;;;;8.81;60.57;96802.33;104471;1277;99815;-65
2023/03/14 05:04:08;;;;;;;6.90;2.70;;;;;;;8.82;60.44;96800.48;104795;1257;108704;-64
2023/03/14 05:06:35;;;;;;;4.30;2.50;;;;;;;8.81;60.64;96796.88;104874;1263;99323;-64
2023/03/14 05:09:04;;;;;;;4.90;2.70;;;;;;;8.82;60.59;96792.05;104759;1260;99254;-64
2023/03/14 05:11:32;;;;;;;4.30;2.10;;;;;;;8.84;60.58;96787.73;104616;1260;113483;-64
2023/03/14 05:13:59;;;;;;;8.70;4.00;;;;;;;8.87;60.26;96790.71;104611;1260;99336;-64
2023/03/14 05:16:26;;;;;;;9.30;5.70;;;;;;;8.89;60.24;96779.07;104884;1271;99330;-64
2023/03/14 05:18:53;;;;;;;4.00;2.50;;;;;;;8.89;60.34;96777.98;104855;1261;99322;-64
2023/03/14 05:21:20;;;;;;;8.30;3.70;;;;;;;8.92;59.93;96775.15;104830;1270;99250;-65
2023/03/14 05:23:48;;;;;;;5.60;2.50;;;;;;;8.95;60.00;96769.94;104741;1262;99340;-65
2023/03/14 05:26:16;;;;;;;5.40;3.10;;;;;;;8.95;59.91;96759.08;104682;1260;100583;-67
2023/03/14 05:28:45;;;;;;;6.40;3.10;;;;;;;8.96;60.01;96758.39;104609;1262;99708;-64
2023/03/14 05:31:14;;;;;;;4.90;2.80;;;;;;;8.95;60.05;96756.90;104622;1264;99359;-64
2023/03/14 05:33:41;;;;;;;6.10;3.10;;;;;;;8.95;60.21;96757.73;104912;1260;99244;-64
2023/03/14 05:36:08;;;;;;;6.70;3.10;;;;;;;8.94;60.25;96754.45;104925;1263;100459;-64
2023/03/14 05:38:35;;;;;;;6.00;4.00;;;;;;;8.94;60.17;96753.21;104860;1262;99249;-64
2023/03/14 05:41:03;;;;;;;9.40;6.40;;;;;;;8.94;60.22;96755.54;104895;1263;99349;-65
2023/03/14 05:43:30;;;;;;;6.40;3.80;;;;;;;8.93;60.43;96754.20;104911;1262;101006;-65
2023/03/14 05:45:56;;;;;;;6.90;2.90;;;;;;;8.91;60.53;96753.21;104850;1273;99282;-64
2023/03/14 05:48:24;;;;;;;6.00;3.40;;;;;;;8.89;60.75;96741.92;104908;1259;99332;-64
2023/03/14 05:50:55;;;;;;;4.30;2.90;;;;;;;8.87;60.81;96737.48;104927;1275;99655;-64
2023/03/14 05:53:23;;;;;;;10.80;3.40;;;;;;;8.85;60.89;96737.52;104618;1266;107646;-65
2023/03/14 05:55:55;;;;;;;6.20;4.10;;;;;;;8.85;60.80;96733.91;104636;1266;100837;-65
2023/03/14 05:58:24;;;;;;;7.00;4.00;;;;;;;8.84;60.85;96726.64;104836;1279;99240;-64
2023/03/14 06:00:51;;;;;;;9.90;7.80;;;;;;;8.84;61.05;96728.27;104727;1261;99328;-64
2023/03/14 06:03:18;;;;;;;11.60;6.60;;;;;;;8.84;61.18;96725.39;104937;1262;99369;-64
2023/03/14 06:05:45;;;;;;;12.80;5.50;;;;;;;8.86;60.96;96726.84;104800;1257;99349;-64
2023/03/14 06:08:13;;;;;;;8.00;3.70;;;;;;;8.86;61.01;96717.25;104936;1270;99257;-64
2023/03/14 06:10:43;;;;;;;9.40;5.90;;;;;;;8.87;61.06;96711.42;104696;1264;99355;-64
2023/03/14 06:13:10;;;;;;;8.00;4.10;;;;;;;8.88;60.94;96704.03;104924;1257;99317;-64
2023/03/14 06:15:37;;;;;;;10.50;3.60;;;;;;;8.89;60.90;96705.00;104733;1262;99804;-64
2023/03/14 06:18:04;;;;;;;12.70;5.00;;;;;;;8.90;60.78;96698.64;104907;1262;99357;-64
2023/03/14 06:20:32;;;;;;;18.50;9.20;;;;;;;8.92;60.94;96705.30;104871;1279;99314;-64
2023/03/14 06:22:59;;;;;;;10.40;6.30;;;;;;;8.93;60.91;96703.61;104797;1262;99319;-64
2023/03/14 06:25:26;;;;;;;15.50;8.30;;;;;;;8.96;60.94;96707.27;104897;1262;99273;-64
2023/03/14 06:27:53;;;;;;;9.70;5.00;;;;;;;8.98;60.92;96696.87;104939;1260;99379;-64
2023/03/14 06:30:21;;;;;;;8.00;3.70;;;;;;;9.00;60.82;96703.02;104869;1262;100549;-64
2023/03/14 06:32:48;;;;;;;10.00;4.20;;;;;;;9.03;61.08;96696.14;104719;1257;100535;-65
2023/03/14 06:35:16;;;;;;;12.80;6.10;;;;;;;9.05;61.02;96694.70;104852;1257;100552;-64
2023/03/14 06:37:43;;;;;;;12.90;5.60;;;;;;;9.09;61.03;96693.20;104745;1263;100552;-65
2023/03/14 06:40:13;;;;;;;12.10;6.30;;;;;;;9.12;60.98;96687.94;104938;1269;99234;-65
2023/03/14 06:42:40;;;;;;;7.40;3.60;;;;;;;9.18;61.06;96678.30;104549;1263;107853;-65
2023/03/14 06:45:08;;;;;;;9.70;4.10;;;;;;;9.22;60.97;96674.65;104584;1262;99323;-65
2023/03/14 06:47:35;;;;;;;10.30;4.50;;;;;;;9.29;60.82;96666.86;104872;1262;99345;-69
2023/03/14 06:50:02;;;;;;;21.10;8.80;;;;;;;9.35;60.68;96667.14;104728;1270;99234;-66
2023/03/14 06:52:29;;;;;;;18.10;6.70;;;;;;;9.40;60.70;96660.02;105249;1262;100460;-65
2023/03/14 06:54:56;;;;;;;13.00;4.80;;;;;;;9.46;60.75;96654.66;104869;1274;99943;-67
2023/03/14 06:57:23;;;;;;;14.60;8.00;;;;;;;9.52;60.66;96665.02;104713;1261;99369;-66
2023/03/14 06:59:50;;;;;;;9.70;5.70;;;;;;;9.57;60.47;96664.13;104595;1261;100926;-64
2023/03/14 07:02:17;;;;;;;13.20;7.90;;;;;;;9.63;60.42;96665.73;104723;1263;99307;-65
2023/03/14 07:04:46;;;;;;;12.60;5.70;;;;;;;9.67;60.47;96670.20;104785;1262;99234;-65
2023/03/14 07:07:14;;;;;;;13.30;5.50;;;;;;;9.73;60.49;96667.44;104694;1262;99406;-66
2023/03/14 07:09:41;;;;;;;8.10;4.50;;;;;;;9.78;60.36;96674.27;104816;1270;99483;-65
2023/03/14 07:12:08;;;;;;;11.70;5.70;;;;;;;9.84;60.30;96684.96;104770;1262;99368;-64
2023/03/14 07:14:35;;;;;;;24.80;10.30;;;;;;;9.91;60.28;96683.06;104445;1264;99261;-65
2023/03/14 07:17:02;;;;;;;12.50;5.20;;;;;;;9.99;60.26;96684.02;104750;1263;99249;-65
2023/03/14 07:19:29;;;;;;;16.90;5.50;;;;;;;10.08;60.13;96694.77;104868;1262;99275;-64
2023/03/14 07:21:57;;;;;;;9.80;5.00;;;;;;;10.16;59.99;96705.09;104702;1262;99250;-65
2023/03/14 07:24:24;;;;;;;11.30;5.10;;;;;;;10.26;59.90;96713.27;104752;1262;115114;-64
2023/03/14 07:26:52;;;;;;;21.60;8.20;;;;;;;10.34;59.30;96721.02;104685;1261;99277;-64
2023/03/14 07:29:20;;;;;;;12.30;5.30;;;;;;;10.44;59.28;96722.40;104586;1264;107590;-66
2023/03/14 07:31:47;;;;;;;28.50;10.80;;;;;;;10.52;58.92;96723.90;104594;1262;99242;-65
2023/03/14 07:34:14;;;;;;;9.80;4.80;;;;;;;10.61;58.91;96725.00;104780;1262;99324;-66
2023/03/14 07:36:41;;;;;;;16.80;6.70;;;;;;;10.70;58.55;96727.13;104629;1260;99292;-65
2023/03/14 07:39:07;;;;;;;9.30;4.20;;;;;;;10.82;58.95;96724.54;104865;1263;100588;-65
2023/03/14 07:41:35;;;;;;;7.90;3.40;;;;;;;10.97;57.79;96725.41;104848;1262;99266;-65
2023/03/14 07:44:02;;;;;;;5.90;2.80;;;;;;;11.16;57.67;96734.13;104860;1262;99319;-65
2023/03/14 07:46:29;;;;;;;10.90;5.10;;;;;;;11.36;56.42;96733.20;104959;1260;99177;-65
2023/03/14 07:48:56;;;;;;;13.20;4.90;;;;;;;11.56;56.57;96728.13;104375;1269;99227;-65
2023/03/14 07:51:23;;;;;;;11.70;4.20;;;;;;;11.76;55.83;96727.71;104826;1262;99244;-65
2023/03/14 07:53:50;;;;;;;14.30;5.80;;;;;;;11.92;55.66;96731.86;104859;1262;99323;-65
2023/03/14 07:56:16;;;;;;;10.40;3.90;;;;;;;12.08;54.99;96739.47;104815;1262;99249;-65
2023/03/14 07:58:44;;;;;;;10.70;5.40;;;;;;;12.17;54.57;96737.71;104863;1262;99263;-65
2023/03/14 08:01:11;;;;;;;5.50;2.90;;;;;;;12.27;54.08;96738.48;104888;1262;99718;-65
2023/03/14 08:03:38;;;;;;;21.50;6.40;;;;;;;12.34;53.96;96736.13;104928;1257;100147;-65
2023/03/14 08:06:05;;;;;;;10.10;4.00;;;;;;;12.43;54.26;96736.48;104829;1261;100846;-65
2023/03/14 08:08:33;;;;;;;6.40;2.70;;;;;;;12.58;54.36;96735.55;104655;1264;113443;-67
2023/03/14 08:11:10;;;;;;;8.40;3.30;;;;;;;12.74;53.14;96743.05;104713;1263;99407;-67
2023/03/14 08:13:38;;;;;;;13.90;5.60;;;;;;;12.88;53.06;96736.81;104668;1274;108561;-71
2023/03/14 08:16:07;;;;;;;17.10;7.00;;;;;;;13.07;53.60;96727.50;104937;1262;99333;-64
2023/03/14 08:18:34;;;;;;;5.00;2.70;;;;;;;13.21;52.12;96723.94;104892;1262;100465;-65
2023/03/14 08:21:01;;;;;;;7.20;4.00;;;;;;;13.26;52.51;96722.66;104883;1262;99225;-65
2023/03/14 08:23:28;;;;;;;11.50;4.90;;;;;;;13.36;51.94;96724.38;104908;1263;100549;-64
2023/03/14 08:25:55;;;;;;;5.80;3.10;;;;;;;13.43;52.83;96731.44;104867;1262;99276;-65
2023/03/14 08:28:23;;;;;;;6.10;2.70;;;;;;;13.47;51.14;96735.95;104946;1261;99233;-65
2023/03/14 08:30:50;;;;;;;3.80;2.30;;;;;;;13.50;51.79;96735.37;104733;1275;99273;-66
2023/03/14 08:33:33;;;;;;;8.60;3.70;;;;;;;13.50;51.33;96737.98;104714;1262;99321;-65
2023/03/14 08:36:15;;;;;;;7.30;3.10;;;;;;;13.45;51.32;96737.98;104898;1262;99233;-64
2023/03/14 08:38:42;;;;;;;5.40;3.20;;;;;;;13.44;51.93;96739.30;104626;1266;107537;-64
2023/03/14 08:41:10;;;;;;;4.20;2.60;;;;;;;13.38;51.52;96740.36;104819;1262;99330;-64
2023/03/14 08:43:37;;;;;;;5.40;2.80;;;;;;;13.28;51.38;96743.89;104524;1260;99761;-65
2023/03/14 08:46:04;;;;;;;6.10;2.80;;;;;;;13.19;51.62;96759.77;104908;1264;99291;-65
2023/03/14 08:48:31;;;;;;;4.10;2.00;;;;;;;13.10;51.72;96765.24;104701;1263;99313;-65
2023/03/14 08:51:25;;;;;;;5.10;3.00;;;;;;;13.06;52.29;96765.84;104702;1263;99369;-65
2023/03/14 08:53:52;;;;;;;4.20;2.40;;;;;;;13.10;52.91;96765.79;104619;1258;99230;-66
2023/03/14 08:56:19;;;;;;;8.90;3.80;;;;;;;13.14;52.26;96763.64;104558;1262;100637;-66
2023/03/14 08:58:46;;;;;;;9.60;4.00;;;;;;;13.25;52.60;96769.48;104799;1262;99259;-66
2023/03/14 09:01:13;;;;;;;6.10;3.80;;;;;;;13.36;52.45;96770.52;104705;1260;99243;-67
2023/03/14 09:03:40;;;;;;;5.00;2.60;;;;;;;13.48;52.57;96773.08;104226;1281;99527;-65
2023/03/14 09:06:09;;;;;;;7.10;3.30;;;;;;;13.58;52.07;96774.60;104280;1268;99320;-65
2023/03/14 09:08:41;;;;;;;5.60;2.60;;;;;;;13.61;51.97;96770.20;104257;1265;99712;-68
2023/03/14 09:11:08;;;;;;;8.10;3.80;;;;;;;13.60;51.40;96781.05;104205;1268;100578;-65
2023/03/14 09:13:36;;;;;;;9.50;4.00;;;;;;;13.57;51.77;96783.33;104252;1268;99480;-66
2023/03/14 09:16:04;;;;;;;10.40;5.10;;;;;;;13.59;52.34;96765.08;104235;1270;99439;-66
2023/03/14 09:18:31;;;;;;;5.30;3.20;;;;;;;13.69;52.28;96753.45;104141;1268;99386;-65
2023/03/14 09:20:59;;;;;;;5.70;3.50;;;;;;;13.74;52.10;96761.67;104283;1265;99446;-66
2023/03/14 09:23:27;;;;;;;3.60;2.30;;;;;;;13.82;51.74;96747.10;104784;1270;113588;-66
2023/03/14 09:25:59;;;;;;;4.50;2.20;;;;;;;13.89;51.01;96738.02;104810;1262;99284;-65
2023/03/14 09:28:27;;;;;;;4.50;3.10;;;;;;;13.99;50.93;96739.26;104445;1267;107810;-65
2023/03/14 09:30:54;;;;;;;5.50;3.70;;;;;;;14.18;51.16;96752.19;104626;1264;99381;-67
2023/03/14 09:33:22;;;;;;;3.80;2.70;;;;;;;14.44;50.90;96755.55;104691;1271;99745;-66
2023/03/14 09:35:50;;;;;;;6.00;3.50;;;;;;;14.68;50.58;96760.21;104919;1271;113621;-64
2023/03/14 09:38:17;;;;;;;6.50;3.50;;;;;;;14.90;49.98;96762.69;104795;1267;99403;-65
2023/03/14 09:40:45;;;;;;;8.70;3.50;;;;;;;15.06;50.44;96760.67;104845;1262;100559;-65
2023/03/14 09:43:15;;;;;;;6.80;3.30;;;;;;;15.25;50.46;96759.84;104936;1257;99250;-65
2023/03/14 09:45:46;;;;;;;5.70;3.20;;;;;;;15.38;49.14;96763.56;104691;1266;99228;-65
2023/03/14 09:48:20;;;;;;;7.60;3.60;;;;;;;15.31;48.78;96784.38;104689;1263;112650;-65
2023/03/14 09:50:54;;;;;;;4.50;3.30;;;;;;;15.16;49.37;96775.83;104918;1262;99258;-65
2023/03/14 09:53:28;;;;;;;4.70;2.60;;;;;;;15.12;49.84;96775.59;104858;1262;109051;-66
2023/03/14 09:55:58;;;;;;;6.50;2.80;;;;;;;15.11;49.54;96776.77;104880;1263;99247;-66
2023/03/14 09:58:25;;;;;;;7.80;4.00;;;;;;;15.11;49.39;96778.98;104917;1261;99261;-66
2023/03/14 10:00:58;;;;;;;8.60;5.10;;;;;;;14.98;49.08;96789.25;104566;1266;114658;-66
2023/03/14 10:03:34;;;;;;;8.50;4.50;;;;;;;14.82;49.92;96791.81;104489;1260;99389;-66
2023/03/14 10:06:10;;;;;;;12.30;5.90;;;;;;;14.67;50.08;96800.70;104584;1263;108617;-66
2023/03/14 10:08:45;;;;;;;12.10;4.90;;;;;;;14.48;50.89;96807.85;104680;1260;99438;-66
2023/03/14 10:11:17;;;;;;;5.50;3.10;;;;;;;14.28;50.30;96812.77;104705;1273;99528;-64
2023/03/14 10:14:13;;;;;;;5.20;2.80;;;;;;;14.12;50.89;96816.92;104597;1265;113365;-65
2023/03/14 10:16:46;;;;;;;7.80;4.10;;;;;;;13.96;51.03;96818.23;104554;1265;100644;-65
2023/03/14 10:19:16;;;;;;;11.30;5.40;;;;;;;13.89;51.71;96818.73;104614;1275;107129;-65
2023/03/14 10:21:49;;;;;;;6.80;4.30;;;;;;;13.82;52.11;96822.21;104548;1274;99340;-65
2023/03/14 10:24:22;;;;;;;5.30;3.70;;;;;;;13.73;52.21;96819.85;104395;1273;99687;-65
2023/03/14 10:26:53;;;;;;;9.60;4.10;;;;;;;13.60;52.53;96824.08;104346;1282;113820;-66
2023/03/14 10:29:24;;;;;;;5.90;4.10;;;;;;;13.52;52.62;96823.61;104592;1269;100623;-65
2023/03/14 10:31:54;;;;;;;6.30;3.50;;;;;;;13.40;53.09;96820.17;104658;1273;108292;-65
2023/03/14 10:34:36;;;;;;;7.10;4.70;;;;;;;13.26;53.28;96830.31;104595;1264;99276;-65
2023/03/14 10:37:26;;;;;;;4.70;3.60;;;;;;;13.17;53.72;96833.28;104547;1275;100795;-65
2023/03/14 10:39:58;;;;;;;7.50;4.10;;;;;;;13.05;54.17;96831.90;104513;1273;113526;-65
2023/03/14 10:42:33;;;;;;;7.90;4.10;;;;;;;12.95;54.75;96832.41;104538;1265;99224;-65
2023/03/14 10:45:05;;;;;;;9.30;3.50;;;;;;;12.85;55.08;96833.64;104649;1263;108547;-64
2023/03/14 10:47:33;;;;;;;10.00;4.10;;;;;;;12.72;55.52;96836.14;104542;1274;99261;-65
2023/03/14 10:50:26;;;;;;;11.20;4.80;;;;;;;12.66;55.74;96839.60;104473;1265;99544;-66
2023/03/14 10:52:54;;;;;;;6.20;3.60;;;;;;;12.58;55.91;96836.83;104406;1265;112198;-65
2023/03/14 10:55:40;;;;;;;5.70;3.70;;;;;;;12.52;56.44;96832.59;104520;1269;100562;-69
2023/03/14 10:58:29;;;;;;;8.40;4.40;;;;;;;12.42;57.95;96837.30;104666;1274;108611;-64
2023/03/14 11:01:17;;;;;;;;;;;;;;;12.31;58.68;96839.05;104645;1259;99236;-64
2023/03/14 11:03:55;;;;;;;8.10;4.60;;;;;;;12.13;60.13;96833.13;104557;1259;99546;-66
2023/03/14 11:06:42;;;;;;;8.50;4.70;;;;;;;11.95;60.56;96825.33;104375;1276;113160;-65
2023/03/14 11:09:27;;;;;;;9.10;4.00;;;;;;;11.84;60.58;96824.73;104493;1265;99415;-65
2023/03/14 11:12:09;;;;;;;6.20;3.80;;;;;;;11.77;61.10;96827.38;104729;1278;108593;-66
2023/03/14 11:14:43;;;;;;;5.50;3.70;;;;;;;11.70;60.97;96820.91;104511;1262;99825;-65
2023/03/14 11:17:36;;;;;;;7.60;4.00;;;;;;;11.66;60.72;96809.95;104810;1281;99635;-65
2023/03/14 11:20:24;;;;;;;11.10;4.80;;;;;;;11.66;60.44;96813.95;104736;1262;113666;-65
2023/03/14 11:23:01;;;;;;;14.40;6.20;;;;;;;11.66;60.11;96817.73;104820;1262;99922;-65
2023/03/14 11:25:51;;;;;;;9.30;5.10;;;;;;;11.64;60.34;96813.85;104781;1262;107835;-65
2023/03/14 11:28:40;;;;;;;5.90;3.80;;;;;;;11.64;59.97;96815.48;104476;1266;99275;-66
2023/03/14 11:31:16;;;;;;;6.60;3.70;;;;;;;11.64;60.06;96817.45;104786;1262;99193;-66
2023/03/14 11:33:52;;;;;;;6.00;3.10;;;;;;;11.64;59.98;96815.64;104799;1260;113868;-66
2023/03/14 11:36:25;;;;;;;5.50;3.70;;;;;;;11.65;59.82;96818.96;104787;1267;99291;-66
2023/03/14 11:38:57;;;;;;;3.90;2.50;;;;;;;11.70;60.21;96818.40;104616;1265;107695;-65